sim
Sign-in with your pilot id or email,
or register
Callsign
Passwort

Schedule Details

Flight Number: OEO4031
Departure: London Heathrow Airport (EGLL) at 16:15
Arrival: Munich Airport (EDDM) at 18:00

Weather Information
Getting current METAR information for EGLL 261820Z AUTO 32009KT 290V010 9999 SCT023 BKN028 OVC037 12/07 Q1013 NOSIG
Getting current METAR information for EDDM 261820Z 24020G32KT 9999 -RA OVC023 07/04 Q1001 NOSIG

Schedule Frequency

Route Map